Terminal Aerodrome Forecast
Issued by NWS

Home | Current Version | Previous Version | Text Only | Print | Product List | Glossary On
Versions: 1 2 3 4 5 6 7 8 9 10 11 12 13 14 15 16 17 18
000
FTUS41 KPHI 251305 AAA
TAFPNE
TAF AMD
KPNE 251305Z 2513/2612 33010KT P6SM BKN200
     FM251700 29009G16KT P6SM BKN150
     FM260000 25003KT P6SM SCT150
     FM260400 36003KT P6SM OVC120
     FM260900 03008KT P6SM OVC120=

USA.gov is the U.S. government's official web portal to all federal, state and local government web resources and services.